Milan, Tennessee
Current Conditions -  °F | °C
As of 12:53 PM on Tuesday 21 Oct 2014 (Local Time) from KMKL Reporting Station
Clear Clear  
Wind Chill: 73°   Ceiling: Unl
Heat Index: 73°   Visibility: 10mi
Dew Point: 45°   Wind: 12mph
Humidity: 37%   Direction: 340°NNW
Pressure: 30.08"   Gusts: NA
Location:  35.92°N, 88.76°W
Report Text: KMKL 211753Z 34010KT 10SM CLR 23/07 A3008 RMK AO2 SLP185 T02280072 10228 20072 58006
Loading
Personal Weather Stations






























Interactive Weather Map
Tropical Storm Tracking
New forecast layout! Learn more

10-Day Weather Forecast

Advertisements
Track Severe Weather on mobile